createdAt,value
2023-04-26T00:01:36.696Z,6.58
2023-04-26T00:06:37.747Z,6.54
2023-04-26T00:11:38.795Z,6.44
2023-04-26T00:16:39.995Z,6.33
2023-04-26T00:21:41.284Z,6.22
2023-04-26T00:26:42.336Z,6.09
2023-04-26T00:31:43.411Z,5.96
2023-04-26T00:36:44.476Z,5.79
2023-04-26T00:41:47.308Z,5.60
2023-04-26T00:46:52.113Z,5.41
2023-04-26T00:51:54.664Z,5.29
2023-04-26T00:56:56.612Z,5.13
2023-04-26T01:01:57.803Z,5.01
2023-04-26T01:07:01.280Z,4.84
2023-04-26T01:12:04.482Z,4.71
2023-04-26T01:17:06.268Z,4.61
2023-04-26T01:22:07.492Z,4.51
2023-04-26T01:27:09.170Z,4.37
2023-04-26T01:32:11.453Z,4.23
2023-04-26T01:37:12.718Z,4.10
2023-04-26T01:42:14.070Z,3.90
2023-04-26T01:47:15.061Z,3.68
2023-04-26T01:52:16.199Z,3.47
2023-04-26T01:57:17.242Z,3.31
2023-04-26T02:02:19.631Z,3.25
2023-04-26T02:07:20.708Z,3.17
2023-04-26T02:12:22.080Z,3.10
2023-04-26T02:17:25.894Z,2.99
2023-04-26T02:22:27.179Z,2.84
2023-04-26T02:27:28.333Z,2.69
2023-04-26T02:32:29.410Z,2.54
2023-04-26T02:37:33.461Z,2.37
2023-04-26T02:42:34.515Z,2.22
2023-04-26T02:47:37.843Z,2.14
2023-04-26T02:52:39.004Z,2.12
2023-04-26T02:57:40.041Z,2.11
2023-04-26T03:02:41.950Z,2.07
2023-04-26T03:07:43.250Z,1.99
2023-04-26T03:12:45.059Z,1.89
2023-04-26T03:17:46.397Z,1.76
2023-04-26T03:22:47.669Z,1.66
2023-04-26T03:27:48.830Z,1.60
2023-04-26T03:32:50.193Z,1.60
2023-04-26T03:37:53.345Z,1.64
2023-04-26T03:42:55.641Z,1.63
2023-04-26T03:47:56.947Z,1.58
2023-04-26T03:52:58.526Z,1.54
2023-04-26T03:57:59.890Z,1.54
2023-04-26T04:03:01.607Z,1.58
2023-04-26T04:08:03.874Z,1.68
2023-04-26T04:13:05.097Z,1.75
2023-04-26T04:18:06.455Z,1.79
2023-04-26T04:23:07.722Z,1.84
2023-04-26T04:28:10.535Z,1.94
2023-04-26T04:33:12.958Z,2.06
2023-04-26T04:38:14.509Z,2.22
2023-04-26T04:43:17.030Z,2.36
2023-04-26T04:48:19.944Z,2.46
2023-04-26T04:53:21.300Z,2.59
2023-04-26T04:58:22.828Z,2.68
2023-04-26T05:03:24.282Z,2.83
2023-04-26T05:08:25.702Z,3.06
2023-04-26T05:13:27.320Z,3.30
2023-04-26T05:18:28.953Z,3.49
2023-04-26T05:23:30.620Z,3.66
2023-04-26T05:28:32.403Z,3.87
2023-04-26T05:33:52.662Z,4.15
2023-04-26T05:39:05.130Z,4.39
2023-04-26T05:44:06.347Z,4.61
2023-04-26T05:49:07.743Z,4.81
2023-04-26T05:54:08.801Z,5.06
2023-04-26T05:59:11.574Z,5.27
2023-04-26T06:04:13.428Z,5.41
2023-04-26T06:09:21.747Z,5.52
2023-04-26T06:14:30.008Z,5.61
2023-04-26T06:19:35.446Z,5.69
2023-04-26T06:24:36.455Z,5.80
2023-04-26T06:29:37.487Z,5.99
2023-04-26T06:34:38.619Z,6.18
2023-04-26T06:39:40.367Z,6.37
2023-04-26T06:44:41.905Z,6.61
2023-04-26T06:49:43.032Z,6.79
2023-04-26T06:54:56.059Z,7.21
2023-04-26T06:59:58.192Z,7.26
2023-04-26T07:04:59.564Z,7.25
2023-04-26T07:10:00.821Z,7.16
2023-04-26T07:15:04.801Z,7.10
2023-04-26T07:20:06.858Z,7.18
2023-04-26T07:25:08.089Z,7.44
2023-04-26T07:30:10.045Z,7.60
2023-04-26T07:35:15.445Z,7.82
2023-04-26T07:40:18.124Z,7.75
2023-04-26T07:45:19.130Z,7.84
2023-04-26T07:50:20.230Z,8.17
2023-04-26T07:55:21.285Z,8.34
2023-04-26T08:00:23.388Z,8.51
2023-04-26T08:05:25.079Z,8.64
2023-04-26T08:10:27.248Z,8.35
2023-04-26T08:15:28.608Z,7.83
2023-04-26T08:20:32.116Z,7.97
2023-04-26T08:25:36.049Z,8.55
2023-04-26T08:30:37.116Z,8.93
2023-04-26T08:35:38.255Z,8.59
2023-04-26T08:40:43.010Z,8.36
2023-04-26T08:45:48.516Z,8.10
2023-04-26T08:50:51.548Z,7.91
2023-04-26T08:55:53.562Z,7.96
2023-04-26T09:00:55.507Z,8.03
2023-04-26T09:05:57.288Z,8.12
2023-04-26T09:10:58.234Z,8.38
2023-04-26T09:15:59.451Z,8.51
2023-04-26T09:21:02.149Z,8.29
2023-04-26T09:26:17.658Z,8.07
2023-04-26T09:31:39.832Z,8.07
2023-04-26T09:36:52.339Z,8.28
2023-04-26T09:41:53.383Z,8.20
2023-04-26T09:47:01.882Z,8.11
2023-04-26T09:52:06.449Z,8.21
2023-04-26T09:57:07.625Z,8.59
2023-04-26T10:02:16.008Z,9.00
2023-04-26T10:07:19.871Z,9.68
2023-04-26T10:12:20.893Z,9.86
2023-04-26T10:17:22.233Z,9.51
2023-04-26T10:22:28.055Z,9.10
2023-04-26T10:27:47.279Z,9.11
2023-04-26T10:32:51.530Z,9.40
2023-04-26T10:38:01.512Z,9.33
2023-04-26T10:43:28.785Z,9.54
2023-04-26T10:48:31.265Z,9.80
2023-04-26T10:53:52.341Z,10.19
2023-04-26T11:04:19.333Z,10.05
2023-04-26T11:09:47.442Z,9.43
2023-04-26T11:14:48.433Z,9.20
2023-04-26T11:19:49.446Z,9.22
2023-04-26T11:24:50.929Z,9.13
2023-04-26T11:29:54.286Z,9.30
2023-04-26T11:35:00.263Z,9.95
2023-04-26T11:40:01.442Z,10.60
2023-04-26T11:45:06.262Z,10.68
2023-04-26T11:50:09.190Z,10.52
2023-04-26T11:55:10.336Z,10.34
2023-04-26T12:00:14.216Z,10.06
2023-04-26T12:05:26.337Z,10.27
2023-04-26T12:10:30.924Z,10.67
2023-04-26T12:15:34.126Z,10.94
2023-04-26T12:20:37.026Z,10.57
2023-04-26T12:25:40.825Z,10.57
2023-04-26T12:30:42.434Z,11.19
2023-04-26T12:35:43.706Z,11.70
2023-04-26T12:40:45.373Z,11.85
2023-04-26T12:45:46.552Z,11.60
2023-04-26T12:50:47.618Z,10.98
2023-04-26T12:55:48.828Z,10.75
2023-04-26T13:00:50.738Z,10.52
2023-04-26T13:05:51.861Z,10.28
2023-04-26T13:10:52.918Z,10.06
2023-04-26T13:15:54.735Z,10.08
2023-04-26T13:20:55.758Z,10.29
2023-04-26T13:25:56.968Z,10.75
2023-04-26T13:30:58.887Z,10.78
2023-04-26T13:36:00.072Z,10.24
2023-04-26T13:41:02.198Z,9.91
2023-04-26T13:46:03.345Z,9.84
2023-04-26T13:51:06.871Z,10.13
2023-04-26T13:56:08.838Z,10.51
2023-04-26T14:01:10.471Z,10.76
2023-04-26T14:06:12.535Z,10.92
2023-04-26T14:11:14.239Z,10.89
2023-04-26T14:16:24.741Z,10.87
2023-04-26T14:21:26.245Z,10.94
2023-04-26T14:26:27.301Z,11.01
2023-04-26T14:31:29.570Z,10.70
2023-04-26T14:36:31.389Z,10.11
2023-04-26T14:41:32.872Z,9.79
2023-04-26T14:46:35.300Z,9.72
2023-04-26T14:51:36.319Z,9.77
2023-04-26T14:56:37.912Z,9.75
2023-04-26T15:01:38.979Z,9.62
2023-04-26T15:06:40.617Z,9.89
2023-04-26T15:11:41.779Z,9.96
2023-04-26T15:16:42.980Z,9.78
2023-04-26T15:21:44.036Z,9.41
2023-04-26T15:26:45.010Z,9.28
2023-04-26T15:31:46.079Z,9.35
2023-04-26T15:36:47.488Z,9.80
2023-04-26T15:41:48.530Z,10.21
2023-04-26T15:46:49.627Z,10.09
2023-04-26T15:51:51.279Z,9.79
2023-04-26T15:56:54.504Z,9.50
2023-04-26T16:01:55.539Z,9.38
2023-04-26T16:06:56.658Z,9.52
2023-04-26T16:11:58.037Z,9.71
2023-04-26T16:17:00.890Z,9.63
2023-04-26T16:22:02.715Z,9.42
2023-04-26T16:27:04.116Z,9.27
2023-04-26T16:32:05.511Z,9.04
2023-04-26T16:37:06.869Z,8.76
2023-04-26T16:42:07.963Z,8.66
2023-04-26T16:47:09.033Z,8.75
2023-04-26T16:52:10.075Z,8.78
2023-04-26T16:57:12.810Z,8.83
2023-04-26T17:02:14.270Z,8.83
2023-04-26T17:07:15.751Z,8.68
2023-04-26T17:12:16.748Z,8.57
2023-04-26T17:17:17.894Z,8.39
2023-04-26T17:22:18.925Z,8.19
2023-04-26T17:27:19.969Z,8.05
2023-04-26T17:32:20.986Z,7.99
2023-04-26T17:37:22.002Z,7.94
2023-04-26T17:42:23.129Z,7.86
2023-04-26T17:47:24.296Z,7.71
2023-04-26T17:52:26.150Z,7.53
2023-04-26T17:57:27.214Z,7.38
2023-04-26T18:02:28.480Z,7.26
2023-04-26T18:07:34.134Z,7.16
2023-04-26T18:12:35.884Z,7.03
2023-04-26T18:17:37.008Z,6.91
2023-04-26T18:22:38.579Z,6.73
2023-04-26T18:27:39.603Z,6.59
2023-04-26T18:32:41.001Z,6.38
2023-04-26T18:37:42.179Z,6.19
2023-04-26T18:42:44.416Z,6.03
2023-04-26T18:47:45.756Z,5.85
2023-04-26T18:52:46.946Z,5.68
2023-04-26T18:57:48.244Z,5.50
2023-04-26T19:02:50.452Z,5.33
2023-04-26T19:07:54.793Z,5.21
2023-04-26T19:12:56.107Z,5.13
2023-04-26T19:17:57.794Z,5.01
2023-04-26T19:22:59.029Z,4.85
2023-04-26T19:28:01.002Z,4.66
2023-04-26T19:33:02.634Z,4.44
2023-04-26T19:38:06.558Z,4.32
2023-04-26T19:43:07.827Z,4.17
2023-04-26T19:48:10.187Z,4.03
2023-04-26T19:53:13.502Z,3.86
2023-04-26T19:58:14.673Z,3.67
2023-04-26T20:03:16.270Z,3.44
2023-04-26T20:08:17.499Z,3.18
2023-04-26T20:13:18.494Z,2.93
2023-04-26T20:18:19.470Z,2.66
2023-04-26T20:23:20.713Z,2.40
2023-04-26T20:28:24.048Z,2.22
2023-04-26T20:33:25.180Z,2.13
2023-04-26T20:38:26.617Z,2.10
2023-04-26T20:43:27.847Z,2.06
2023-04-26T20:48:29.041Z,1.91
2023-04-26T20:53:30.534Z,1.73
2023-04-26T20:58:31.606Z,1.56
2023-04-26T21:03:33.679Z,1.40
2023-04-26T21:08:36.774Z,1.25
2023-04-26T21:13:47.449Z,1.13
2023-04-26T21:18:48.597Z,1.02
2023-04-26T21:23:49.900Z,0.89
2023-04-26T21:28:51.030Z,0.82
2023-04-26T21:33:52.946Z,0.84
2023-04-26T21:38:56.622Z,0.89
2023-04-26T21:43:58.438Z,1.04
2023-04-26T21:49:01.349Z,1.11
2023-04-26T21:54:02.979Z,1.13
2023-04-26T21:59:04.276Z,1.14
2023-04-26T22:04:05.733Z,1.15
2023-04-26T22:09:09.550Z,1.17
2023-04-26T22:14:10.904Z,1.21
2023-04-26T22:19:12.196Z,1.33
2023-04-26T22:24:13.663Z,1.54
2023-04-26T22:29:14.640Z,1.79
2023-04-26T22:34:15.789Z,2.02
2023-04-26T22:39:16.862Z,2.13
2023-04-26T22:44:17.897Z,2.20
2023-04-26T22:49:19.010Z,2.22
2023-04-26T22:54:20.161Z,2.23
2023-04-26T22:59:21.191Z,2.22
2023-04-26T23:04:22.302Z,2.21
2023-04-26T23:09:24.156Z,2.26
2023-04-26T23:14:34.423Z,2.31
2023-04-26T23:19:35.875Z,2.38
2023-04-26T23:24:36.900Z,2.42
2023-04-26T23:29:37.861Z,2.44
2023-04-26T23:34:38.898Z,2.41
2023-04-26T23:39:40.915Z,2.37
2023-04-26T23:44:51.326Z,2.33
2023-04-26T23:49:53.511Z,2.27
2023-04-26T23:54:54.594Z,2.29
2023-04-26T23:59:55.639Z,2.34
